Saint Joseph, Minnesota
Current Conditions -  °F | °C
As of 5:53 PM on Saturday 22 Nov 2014 (Local Time) from KSTC Reporting Station
Haze Haze  
Wind Chill: 26°   Ceiling: 200
Heat Index: 34°   Visibility: 0.75mi
Dew Point: 32°   Wind: 10mph
Humidity: 92%   Direction: 140°SE
Pressure: 29.56"   Gusts: NA
Location:  45.56°N, 94.32°W
Report Text: KSTC 222353Z 14009KT 3/4SM BR VV002 01/00 A2956 RMK AO2 SLP032 T00110000 10017 20011 56021
Loading
Personal Weather Stations






























Interactive Weather Map New forecast layout! Learn more

10-Day Weather Forecast

Advertisements
Track Severe Weather on mobile